KSMF/SMF METAR and TAF weather

Enter ICAO airport designator
Station Type Date Time Source
KSMF METAR 2021/02/28 02:53 UTC NOAA

KSMF 280253Z 13004KT 10SM CLR 11/M02 A3011 RMK AO2 SLP197 T01111022 53003


Station Type Date Time Source
KSMF Decoded METAR 2021/02/28 02:53 UTC NOAA

SACRAMENTO INTERNATIONAL AIRPORT, CA, United States (KSMF) 38-42N 121-36W 6M
Feb 27, 2021 - 09:53 PM EST / 2021.02.28 0253 UTC
Wind: from the SE (130 degrees) at 5 MPH (4 KT):0
Visibility: 10 mile(s):0
Sky conditions: clear
Temperature: 52.0 F (11.1 C)
Dew Point: 28.0 F (-2.2 C)
Relative Humidity: 39%
Pressure (altimeter): 30.11 in. Hg (1019 hPa)
Pressure tendency: 0.01 inches (0.3 hPa) higher than three hours ago
ob: KSMF 280253Z 13004KT 10SM CLR 11/M02 A3011 RMK AO2 SLP197 T01111022 53003
cycle: 3

Station Type Date Time Source
KSMF TAF 2021/02/27 18:36 UTC NOAA

TAF KSMF 271733Z 2718/2818 34014G24KT P6SM SKC
FM272200 34018G28KT P6SM SKC
FM280300 33011KT P6SM SKC

Example: see airport list